Time;durP1;ratioP1;P1;durP2;ratioP2;P2;SDS_P1;SDS_P2;PMS_P1;PMS_P2;Temp;Humidity;BMP_temperature;BMP_pressure;BME280_temperature;BME280_humidity;BME280_pressure;Samples;Min_cycle;Max_cycle;Signal;HPM_P1;HPM_P2
2023/02/23 00:02:17;;;;;;;43.53;26.42;;;;;;;9.22;100.00;100021.44;5064483;28;20082;-78
2023/02/23 00:04:43;;;;;;;42.47;27.17;;;;;;;9.34;100.00;100046.44;5069196;28;20442;-79
2023/02/23 00:07:10;;;;;;;39.05;25.88;;;;;;;8.78;100.00;99947.81;5068212;28;20055;-78
2023/02/23 00:09:37;;;;;;;42.90;28.58;;;;;;;8.32;100.00;99871.69;5069747;28;20139;-80
2023/02/23 00:12:08;;;;;;;38.85;25.77;;;;;;;8.94;100.00;99968.22;5069789;28;20068;-78
2023/02/23 00:14:36;;;;;;;39.33;26.50;;;;;;;8.54;100.00;99893.50;5069640;28;20056;-79
2023/02/23 00:17:04;;;;;;;40.35;26.13;;;;;;;8.99;100.00;99977.63;5068907;28;20079;-78
2023/02/23 00:19:32;;;;;;;39.97;27.02;;;;;;;9.14;100.00;100010.38;5069969;28;20542;-79
2023/02/23 00:21:59;;;;;;;39.63;26.52;;;;;;;8.95;100.00;99972.56;5068411;28;20759;-79
2023/02/23 00:24:26;;;;;;;43.13;27.88;;;;;;;9.26;100.00;100014.25;5069510;28;20086;-78
2023/02/23 00:26:53;;;;;;;41.67;27.40;;;;;;;9.21;100.00;100029.44;5069995;28;20051;-80
2023/02/23 00:29:26;;;;;;;44.63;28.75;;;;;;;8.78;100.00;99968.94;5070277;28;20048;-81
2023/02/23 00:31:54;;;;;;;43.17;27.45;;;;;;;9.24;100.00;100035.44;5070822;28;20048;-80
2023/02/23 00:34:22;;;;;;;46.83;29.10;;;;;;;9.05;100.00;100002.91;5070897;28;20048;-79
2023/02/23 00:36:55;;;;;;;43.38;28.85;;;;;;;9.02;100.00;99995.09;5070876;28;20070;-80
2023/02/23 00:39:27;;;;;;;43.05;27.58;;;;;;;8.48;100.00;99907.00;5066710;28;20049;-79
2023/02/23 00:41:55;;;;;;;47.85;29.90;;;;;;;8.75;100.00;99953.22;5062031;28;20048;-80
2023/02/23 00:44:23;;;;;;;46.13;29.58;;;;;;;9.26;100.00;100044.16;5069273;28;20501;-82
2023/02/23 00:46:51;;;;;;;44.25;29.50;;;;;;;8.65;100.00;99937.91;5061925;28;20090;-79
2023/02/23 00:49:19;;;;;;;49.08;29.40;;;;;;;9.04;100.00;100009.97;5069490;28;20048;-80
2023/02/23 00:51:46;;;;;;;49.08;29.33;;;;;;;8.48;100.00;99919.34;5068564;28;20045;-81
2023/02/23 00:54:15;;;;;;;45.97;29.55;;;;;;;9.21;100.00;100047.94;5061100;28;20055;-80
2023/02/23 00:56:42;;;;;;;47.97;29.73;;;;;;;9.12;100.00;100041.31;5064096;28;20063;-78
2023/02/23 00:59:09;;;;;;;44.35;29.88;;;;;;;9.17;100.00;100051.66;5068670;28;20131;-79
2023/02/23 01:01:36;;;;;;;48.63;28.55;;;;;;;9.00;100.00;100020.72;5069802;28;20420;-80
2023/02/23 01:04:05;;;;;;;46.97;29.58;;;;;;;9.04;100.00;100027.59;5066771;28;20041;-80
2023/02/23 01:06:33;;;;;;;50.90;30.38;;;;;;;8.77;100.00;99998.03;5070521;28;20140;-78
2023/02/23 01:09:04;;;;;;;46.67;29.75;;;;;;;8.63;100.00;99976.69;5049548;28;20142;-81
2023/02/23 01:11:30;;;;;;;43.25;27.98;;;;;;;8.88;100.00;99995.75;5063922;28;20088;-79
2023/02/23 01:13:59;;;;;;;46.42;28.52;;;;;;;8.68;100.00;99964.13;5068020;28;20144;-79
2023/02/23 01:16:30;;;;;;;43.88;27.92;;;;;;;8.60;100.00;99959.22;5065903;28;20084;-78
2023/02/23 01:19:02;;;;;;;52.95;29.88;;;;;;;9.14;100.00;100042.94;5069388;28;20147;-79
2023/02/23 01:21:32;;;;;;;46.90;29.55;;;;;;;9.19;100.00;100047.16;5066393;28;20139;-80
2023/02/23 01:23:59;;;;;;;35.58;23.73;;;;;;;9.08;100.00;100023.88;5073634;28;20064;-79
2023/02/23 01:26:35;;;;;;;47.42;30.15;;;;;;;9.14;100.00;100040.28;5059257;28;20413;-81
2023/02/23 01:29:10;;;;;;;52.35;30.58;;;;;;;8.63;100.00;99969.63;5070293;28;20068;-80
2023/02/23 01:31:38;;;;;;;48.05;30.42;;;;;;;8.50;100.00;99935.97;5069088;28;20059;-82
2023/02/23 01:34:06;;;;;;;49.35;30.70;;;;;;;8.27;100.00;99902.66;5072214;28;20052;-81
2023/02/23 01:36:35;;;;;;;47.75;29.00;;;;;;;9.13;100.00;100049.13;5069603;28;20068;-79
2023/02/23 01:39:06;;;;;;;48.08;30.65;;;;;;;8.20;100.00;99886.25;5069184;28;20045;-81
2023/02/23 01:41:35;;;;;;;51.80;31.48;;;;;;;9.09;100.00;100046.72;5072046;28;20052;-79
2023/02/23 01:44:07;;;;;;;45.72;29.20;;;;;;;9.09;100.00;100036.16;5076738;28;20075;-78
2023/02/23 01:46:39;;;;;;;52.25;32.10;;;;;;;8.93;100.00;100014.91;5073454;28;20056;-79
2023/02/23 01:49:14;;;;;;;52.75;32.50;;;;;;;8.76;100.00;99988.41;5071078;28;20143;-80
2023/02/23 01:51:48;;;;;;;50.40;32.53;;;;;;;9.01;100.00;100033.00;5067318;28;20052;-81
2023/02/23 01:54:20;;;;;;;49.47;31.23;;;;;;;8.81;100.00;100019.88;5051193;28;20066;-78
2023/02/23 01:56:56;;;;;;;54.78;34.08;;;;;;;8.69;100.00;100002.81;5072242;28;20083;-79
2023/02/23 01:59:33;;;;;;;57.72;33.70;;;;;;;8.45;100.00;99967.84;5068261;28;20057;-78
2023/02/23 02:02:00;;;;;;;54.40;34.10;;;;;;;8.84;100.00;100040.84;5073120;28;20409;-79
2023/02/23 02:04:27;;;;;;;57.00;35.28;;;;;;;8.77;100.00;100029.72;5048539;28;20727;-78
2023/02/23 02:06:55;;;;;;;55.70;34.97;;;;;;;8.66;100.00;100022.25;5066067;28;20576;-79
2023/02/23 02:09:26;;;;;;;57.67;35.22;;;;;;;8.79;100.00;100035.78;5072305;28;20608;-80
2023/02/23 02:11:53;;;;;;;57.78;35.25;;;;;;;8.55;100.00;99998.16;5072450;28;20091;-78
2023/02/23 02:14:22;;;;;;;56.08;33.40;;;;;;;8.00;100.00;99900.34;5072655;28;20131;-78
2023/02/23 02:17:31;;;;;;;58.15;35.47;;;;;;;8.76;100.00;100064.97;5072691;28;22119;-78
2023/02/23 02:20:37;;;;;;;53.53;33.53;;;;;;;8.73;100.00;100033.41;5070897;28;20072;-78
2023/02/23 02:23:41;;;;;;;57.60;33.40;;;;;;;8.72;100.00;100032.56;5070229;28;20116;-79
2023/02/23 02:26:40;;;;;;;59.47;36.05;;;;;;;8.71;100.00;100025.56;5068923;28;20045;-81
2023/02/23 02:29:44;;;;;;;58.03;36.22;;;;;;;8.69;100.00;100032.69;5067335;28;20139;-79
2023/02/23 02:32:23;;;;;;;61.03;36.30;;;;;;;8.70;100.00;100028.28;5059858;28;20041;-79
2023/02/23 02:35:19;;;;;;;60.10;36.33;;;;;;;8.69;100.00;100030.06;5073411;28;20109;-80
2023/02/23 02:37:55;;;;;;;62.33;37.15;;;;;;;8.66;100.00;100027.53;5034529;28;20052;-80
2023/02/23 02:40:32;;;;;;;65.20;38.05;;;;;;;8.04;100.00;99925.63;5070934;28;20163;-80
2023/02/23 02:43:10;;;;;;;65.05;39.53;;;;;;;8.53;100.00;100015.81;5067732;28;20048;-80
2023/02/23 02:45:49;;;;;;;71.22;39.47;;;;;;;8.51;100.00;100020.31;5072364;28;20052;-81
2023/02/23 02:48:48;;;;;;;67.60;39.20;;;;;;;8.53;100.00;100021.09;5072639;28;20051;-80
2023/02/23 02:51:30;;;;;;;70.47;40.35;;;;;;;8.15;100.00;99954.19;5075573;28;20047;-79
2023/02/23 02:54:10;;;;;;;65.07;38.20;;;;;;;8.55;100.00;100013.13;5072623;28;20048;-80
2023/02/23 02:56:40;;;;;;;68.90;39.35;;;;;;;8.21;100.00;99953.03;5068283;28;20079;-80
2023/02/23 04:17:44;;;;;;;103.43;53.05;;;;;;;7.92;100.00;99917.41;5072939;28;20156;-82
2023/02/23 04:20:12;;;;;;;92.03;49.67;;;;;;;8.37;100.00;100001.59;5073972;28;20056;-82
2023/02/23 04:22:39;;;;;;;96.22;50.38;;;;;;;8.53;100.00;100015.81;5073395;28;20451;-82
2023/02/23 04:25:07;;;;;;;99.63;50.60;;;;;;;7.98;100.00;99933.84;5074400;28;20421;-83
2023/02/23 04:27:35;;;;;;;101.28;51.70;;;;;;;7.80;100.00;99904.78;5082520;28;20102;-81
2023/02/23 04:30:03;;;;;;;102.65;52.53;;;;;;;8.49;100.00;100023.97;5073876;28;20048;-84
2023/02/23 04:32:30;;;;;;;103.05;53.42;;;;;;;7.78;100.00;99894.28;5074507;28;20555;-84
2023/02/23 04:34:57;;;;;;;104.00;53.22;;;;;;;8.37;100.00;99998.97;5076345;28;20118;-84
2023/02/23 04:37:24;;;;;;;107.22;54.63;;;;;;;7.80;100.00;99912.69;5084003;28;20059;-85
2023/02/23 04:39:51;;;;;;;109.03;53.67;;;;;;;8.26;100.00;99985.38;5082808;28;20063;-84
2023/02/23 04:42:18;;;;;;;105.97;54.53;;;;;;;8.55;100.00;100032.47;5082646;28;20063;-83
2023/02/23 04:44:44;;;;;;;105.45;53.88;;;;;;;7.77;100.00;99903.13;5084082;28;20088;-83
2023/02/23 04:47:14;;;;;;;112.13;54.17;;;;;;;8.54;100.00;100024.59;5092104;28;20056;-84
2023/02/23 04:49:41;;;;;;;117.35;55.47;;;;;;;7.89;100.00;99930.72;5086225;28;20580;-83
2023/02/23 04:52:08;;;;;;;115.25;56.63;;;;;;;8.43;100.00;100009.25;5086600;28;20029;-81
2023/02/23 04:54:38;;;;;;;116.15;56.10;;;;;;;7.79;100.00;99898.66;5089763;28;20092;-82
2023/02/23 04:57:05;;;;;;;107.25;55.72;;;;;;;8.30;100.00;99987.81;5074569;28;20062;-81
2023/02/23 04:59:32;;;;;;;111.07;55.53;;;;;;;8.20;100.00;99975.06;5083757;28;20036;-80
2023/02/23 05:01:59;;;;;;;111.40;55.30;;;;;;;7.36;100.00;99839.03;5074932;28;20573;-81
2023/02/23 05:04:25;;;;;;;119.05;56.28;;;;;;;8.58;100.00;100028.81;5085965;28;20032;-81
2023/02/23 05:06:52;;;;;;;110.40;55.20;;;;;;;7.74;100.00;99887.44;5090935;28;20057;-82
2023/02/23 05:09:19;;;;;;;110.07;54.72;;;;;;;8.58;100.00;100028.81;5092410;28;20060;-81
2023/02/23 05:11:46;;;;;;;106.88;53.97;;;;;;;8.44;100.00;100008.34;5090330;28;20072;-84
2023/02/23 05:14:12;;;;;;;102.53;53.75;;;;;;;8.38;100.00;100008.59;5090824;28;20066;-82
2023/02/23 05:16:39;;;;;;;107.25;52.92;;;;;;;8.37;100.00;99993.69;5080592;28;20068;-84
2023/02/23 05:19:06;;;;;;;111.90;54.30;;;;;;;8.40;100.00;100009.38;5079040;28;20136;-81
2023/02/23 05:21:32;;;;;;;103.18;52.15;;;;;;;7.76;100.00;99906.69;5088169;28;20115;-82
2023/02/23 05:23:59;;;;;;;107.45;53.55;;;;;;;8.54;100.00;100032.53;5088269;28;20132;-82
2023/02/23 05:26:26;;;;;;;107.15;53.88;;;;;;;8.07;100.00;99965.06;5077524;28;20140;-82
2023/02/23 05:28:53;;;;;;;103.78;52.63;;;;;;;8.55;100.00;100055.34;5076729;28;20492;-83
2023/02/23 05:31:20;;;;;;;104.20;52.78;;;;;;;8.13;100.00;99976.28;5059574;28;20666;-84
2023/02/23 05:33:47;;;;;;;102.45;53.33;;;;;;;8.56;100.00;100031.53;5076193;28;20075;-81
2023/02/23 05:36:16;;;;;;;109.68;53.85;;;;;;;6.71;100.00;99721.59;5069874;28;20121;-80
2023/02/23 05:38:44;;;;;;;104.18;53.67;;;;;;;8.38;100.00;100011.22;5076694;28;20053;-80
2023/02/23 05:41:14;;;;;;;113.35;54.42;;;;;;;8.41;100.00;100013.75;5076315;28;20063;-80
2023/02/23 05:43:41;;;;;;;117.38;57.33;;;;;;;8.13;100.00;99982.41;5075598;28;20143;-82
2023/02/23 05:46:09;;;;;;;114.22;56.72;;;;;;;8.32;100.00;100008.88;5067288;28;20083;-80
2023/02/23 05:48:36;;;;;;;115.40;55.67;;;;;;;6.72;100.00;99741.72;5075822;28;20135;-81
2023/02/23 05:51:09;;;;;;;123.68;57.20;;;;;;;8.26;100.00;99991.50;5067283;28;20044;-82
2023/02/23 05:53:36;;;;;;;123.90;56.78;;;;;;;8.54;100.00;100033.38;5074252;28;20143;-81
2023/02/23 05:56:06;;;;;;;119.47;54.75;;;;;;;8.56;100.00;100041.22;5070027;28;20540;-81
2023/02/23 05:58:33;;;;;;;125.13;57.47;;;;;;;8.27;100.00;99989.72;5070116;28;20485;-82
2023/02/23 06:01:00;;;;;;;122.70;57.78;;;;;;;8.12;100.00;99978.06;5074127;28;20080;-81
2023/02/23 06:03:27;;;;;;;122.32;56.47;;;;;;;8.15;100.00;99970.03;5069661;28;20574;-80
2023/02/23 06:05:57;;;;;;;126.22;58.10;;;;;;;8.24;100.00;99993.34;5078435;28;20056;-81
2023/02/23 06:08:25;;;;;;;127.93;58.45;;;;;;;8.33;100.00;100005.31;5084884;28;20075;-81
2023/02/23 06:10:52;;;;;;;123.53;57.60;;;;;;;8.30;100.00;99998.38;5084987;28;20060;-82
2023/02/23 06:13:20;;;;;;;126.90;58.65;;;;;;;7.76;100.00;99919.84;5086126;28;20078;-83
2023/02/23 06:15:48;;;;;;;131.23;57.40;;;;;;;8.37;100.00;100020.06;5080569;28;20056;-82
2023/02/23 06:18:16;;;;;;;125.78;56.00;;;;;;;8.29;100.00;100003.69;5071991;28;20083;-82
2023/02/23 06:20:44;;;;;;;139.38;58.85;;;;;;;7.41;100.00;99842.31;5076017;28;20052;-83
2023/02/23 06:23:12;;;;;;;141.48;59.10;;;;;;;8.28;100.00;99996.72;5074820;28;20455;-84
2023/02/23 06:25:39;;;;;;;132.90;56.67;;;;;;;8.43;100.00;100018.03;5074781;28;20497;-82
2023/02/23 06:28:07;;;;;;;133.88;58.25;;;;;;;8.41;100.00;100011.97;5074513;28;20079;-84
2023/02/23 06:30:34;;;;;;;133.57;58.92;;;;;;;8.53;100.00;100042.22;5071275;28;20052;-83
2023/02/23 06:33:01;;;;;;;133.98;57.97;;;;;;;8.64;100.00;100061.09;5056349;28;20057;-82
2023/02/23 06:35:28;;;;;;;130.57;56.72;;;;;;;8.49;100.00;100022.19;5078163;28;20048;-82
2023/02/23 06:37:55;;;;;;;132.27;57.55;;;;;;;8.21;100.00;99977.66;5072329;28;20054;-82
2023/02/23 06:40:22;;;;;;;141.35;60.50;;;;;;;8.67;100.00;100054.81;5074431;28;20469;-83
2023/02/23 06:42:49;;;;;;;141.90;59.60;;;;;;;8.03;100.00;99947.66;5073920;28;20143;-82
2023/02/23 06:45:18;;;;;;;142.68;61.25;;;;;;;8.03;100.00;99949.44;5074602;28;20079;-81
2023/02/23 06:47:46;;;;;;;143.00;59.28;;;;;;;6.81;100.00;99740.47;5068783;28;20052;-83
2023/02/23 06:50:14;;;;;;;151.23;62.35;;;;;;;8.68;100.00;100062.66;5080542;28;20095;-83
2023/02/23 06:52:40;;;;;;;153.25;63.28;;;;;;;7.54;100.00;99869.88;5073893;28;20055;-80
2023/02/23 06:55:08;;;;;;;149.95;61.95;;;;;;;8.09;100.00;99981.69;5071470;28;20047;-80
2023/02/23 06:57:35;;;;;;;151.02;61.95;;;;;;;8.25;100.00;99988.94;5027133;28;1167184;-81
2023/02/23 07:00:02;;;;;;;154.25;62.03;;;;;;;8.43;100.00;100019.81;5072473;28;20056;-78
2023/02/23 07:02:29;;;;;;;152.32;61.67;;;;;;;8.76;100.00;100081.66;5071730;28;20063;-79
2023/02/23 07:04:55;;;;;;;155.55;64.03;;;;;;;8.40;100.00;100015.53;5071898;28;20063;-79
2023/02/23 07:07:22;;;;;;;154.98;63.85;;;;;;;8.08;100.00;99979.09;5066785;28;20079;-80
2023/02/23 07:09:49;;;;;;;153.52;63.30;;;;;;;8.60;100.00;100056.00;5065980;28;20081;-78
2023/02/23 07:12:15;;;;;;;158.57;64.00;;;;;;;8.53;100.00;100052.78;5071974;28;20156;-78
2023/02/23 07:14:42;;;;;;;152.63;64.18;;;;;;;8.42;100.00;100028.66;5071110;28;20052;-80
2023/02/23 07:17:09;;;;;;;149.98;62.97;;;;;;;8.23;100.00;99988.13;5065985;28;20131;-79
2023/02/23 07:19:38;;;;;;;151.95;64.28;;;;;;;8.29;100.00;100006.34;5072191;28;20060;-80
2023/02/23 07:22:04;;;;;;;151.82;64.88;;;;;;;8.54;100.00;100043.06;5071654;28;20057;-81
2023/02/23 07:24:31;;;;;;;155.95;68.57;;;;;;;8.68;100.00;100062.66;5068953;28;20569;-79
2023/02/23 07:26:58;;;;;;;153.70;63.63;;;;;;;8.64;100.00;100062.88;5053736;28;20597;-79
2023/02/23 07:29:26;;;;;;;153.43;63.53;;;;;;;8.36;100.00;100007.81;5064035;28;20055;-81
2023/02/23 07:31:54;;;;;;;152.05;64.15;;;;;;;8.72;100.00;100060.75;5047074;28;20065;-79
2023/02/23 07:34:21;;;;;;;147.85;62.33;;;;;;;8.75;100.00;100058.81;5073881;28;20036;-81
2023/02/23 07:36:47;;;;;;;144.77;64.60;;;;;;;8.57;100.00;100035.88;5073269;28;20052;-79
2023/02/23 07:39:14;;;;;;;141.55;62.90;;;;;;;8.97;100.00;100102.75;5072480;28;20132;-80
2023/02/23 07:41:41;;;;;;;146.88;63.88;;;;;;;8.15;100.00;99946.28;5070404;28;20200;-78
2023/02/23 07:44:08;;;;;;;144.60;64.63;;;;;;;9.01;100.00;100086.69;5051820;28;20124;-78
2023/02/23 07:46:34;;;;;;;142.70;60.20;;;;;;;9.03;100.00;100094.53;5065119;28;20049;-78
2023/02/23 07:49:02;;;;;;;134.40;58.67;;;;;;;8.01;100.00;99911.75;5070127;28;20071;-77
2023/02/23 07:51:29;;;;;;;130.48;60.03;;;;;;;9.09;100.00;100107.47;5072068;28;20109;-78
2023/02/23 07:53:55;;;;;;;133.38;59.47;;;;;;;8.78;100.00;100050.78;5070553;28;20045;-79
2023/02/23 07:56:22;;;;;;;138.10;61.33;;;;;;;8.39;100.00;99999.75;5070247;28;20517;-78
2023/02/23 07:58:48;;;;;;;138.05;60.97;;;;;;;8.86;100.00;100046.91;5072050;28;20070;-79
2023/02/23 08:01:15;;;;;;;130.52;60.35;;;;;;;9.24;100.00;100114.72;5071753;28;20110;-80
2023/02/23 08:03:48;;;;;;;124.67;55.70;;;;;;;8.96;100.00;100046.44;5054946;28;20504;-81
2023/02/23 08:06:17;;;;;;;132.05;58.75;;;;;;;9.37;100.00;100100.00;5064727;28;20052;-82
2023/02/23 08:08:43;;;;;;;121.95;56.13;;;;;;;9.18;100.00;100054.22;5073577;28;20056;-79
2023/02/23 08:11:11;;;;;;;117.93;55.63;;;;;;;8.89;100.00;100010.69;5069965;28;20055;-78
2023/02/23 08:13:37;;;;;;;112.43;55.47;;;;;;;9.28;100.00;100059.94;5064523;28;20059;-79
2023/02/23 08:16:04;;;;;;;112.32;53.72;;;;;;;9.27;100.00;100055.59;5071089;28;20072;-80
2023/02/23 08:18:31;;;;;;;106.03;51.80;;;;;;;9.61;100.00;100118.25;5071617;28;20087;-80
2023/02/23 08:21:02;;;;;;;104.65;51.95;;;;;;;9.14;100.00;100021.78;5070958;28;20131;-80
2023/02/23 08:23:31;;;;;;;113.00;53.28;;;;;;;9.15;100.00;100023.50;5070737;28;20497;-80
2023/02/23 08:25:58;;;;;;;98.75;50.97;;;;;;;9.57;100.00;100098.22;5070982;28;20049;-81
2023/02/23 08:28:26;;;;;;;101.35;49.47;;;;;;;9.38;100.00;100071.78;5070085;28;20053;-82
2023/02/23 08:30:53;;;;;;;105.32;50.90;;;;;;;9.44;100.00;100090.84;5071014;28;20494;-81
2023/02/23 08:33:21;;;;;;;95.10;50.97;;;;;;;9.48;100.00;100086.28;5071180;28;20067;-80
2023/02/23 08:35:47;;;;;;;99.05;49.28;;;;;;;8.16;100.00;99886.47;5066756;28;20055;-81
2023/02/23 08:38:15;;;;;;;92.88;48.88;;;;;;;9.33;100.00;100089.63;5067325;28;20095;-80
2023/02/23 08:40:42;;;;;;;88.35;47.83;;;;;;;9.28;100.00;100094.28;5052502;28;20703;-80
2023/02/23 08:43:09;;;;;;;95.63;50.28;;;;;;;9.43;100.00;100126.16;5070089;28;20062;-81
2023/02/23 08:45:38;;;;;;;92.30;48.53;;;;;;;9.28;100.00;100121.56;5070749;28;20132;-80
2023/02/23 08:48:07;;;;;;;91.38;47.05;;;;;;;9.29;100.00;100099.47;5052942;28;20159;-82
2023/02/23 08:50:34;;;;;;;87.75;47.42;;;;;;;9.37;100.00;100080.66;5070662;28;20534;-79
2023/02/23 08:53:01;;;;;;;82.95;45.28;;;;;;;8.96;100.00;99998.06;5065566;28;20045;-80
2023/02/23 08:55:27;;;;;;;80.97;44.72;;;;;;;9.78;100.00;100136.81;5065358;28;20131;-80
2023/02/23 08:57:54;;;;;;;83.32;43.88;;;;;;;9.46;100.00;100088.97;5067912;28;20075;-81
2023/02/23 09:00:21;;;;;;;81.50;44.47;;;;;;;9.78;100.00;100137.69;5072619;28;20127;-79
2023/02/23 09:02:48;;;;;;;79.07;44.67;;;;;;;9.28;100.00;100058.16;5072711;28;20098;-81
2023/02/23 09:05:15;;;;;;;83.72;46.90;;;;;;;9.65;100.00;100118.06;5069064;28;20581;-80
2023/02/23 09:07:46;;;;;;;86.65;45.28;;;;;;;9.69;100.00;100138.13;5065971;28;20060;-80
2023/02/23 09:10:19;;;;;;;84.18;47.40;;;;;;;9.54;100.00;100116.84;5071073;28;20086;-80
2023/02/23 09:12:45;;;;;;;81.57;45.30;;;;;;;8.90;100.00;100009.75;5067432;28;20101;-80
2023/02/23 09:15:12;;;;;;;86.95;45.83;;;;;;;9.64;100.00;100134.84;5071051;28;20098;-78
2023/02/23 09:17:41;;;;;;;89.78;46.42;;;;;;;9.33;100.00;100081.72;5069887;28;20044;-79
2023/02/23 09:20:12;;;;;;;89.45;47.13;;;;;;;9.68;100.00;100140.84;5071605;28;20068;-80
2023/02/23 09:22:40;;;;;;;90.03;46.88;;;;;;;9.71;100.00;100138.06;5067959;28;20048;-79
2023/02/23 09:25:09;;;;;;;85.93;47.95;;;;;;;9.52;100.00;100102.84;5071491;28;20062;-78
2023/02/23 09:27:35;;;;;;;90.30;47.10;;;;;;;9.67;100.00;100155.00;5070365;28;20477;-78
2023/02/23 09:30:03;;;;;;;86.57;47.00;;;;;;;9.42;100.00;100102.44;5070919;28;20079;-79
2023/02/23 09:32:30;;;;;;;84.80;45.60;;;;;;;9.35;100.00;100091.28;5066625;28;20052;-80
2023/02/23 09:34:57;;;;;;;83.95;44.35;;;;;;;9.50;100.00;100110.84;5070320;28;20143;-79
2023/02/23 09:37:24;;;;;;;83.18;45.10;;;;;;;9.24;100.00;100082.16;5052811;28;20040;-79
2023/02/23 09:39:50;;;;;;;88.60;48.05;;;;;;;9.29;100.00;100094.19;5070802;28;20159;-79
2023/02/23 09:42:35;;;;;;;85.22;46.10;;;;;;;9.70;100.00;100155.72;5053204;28;20139;-80
2023/02/23 09:45:05;;;;;;;85.07;45.42;;;;;;;8.82;100.00;99985.47;5067994;28;20127;-79
2023/02/23 09:47:39;;;;;;;80.97;44.00;;;;;;;9.98;100.00;100152.59;5070653;28;20106;-82
2023/02/23 09:50:28;;;;;;;82.68;44.53;;;;;;;9.91;100.00;100110.66;5071932;28;20573;-78
2023/02/23 09:53:14;;;;;;;76.70;42.47;;;;;;;10.12;100.00;100121.03;5074453;28;20080;-79
2023/02/23 09:55:42;;;;;;;71.72;42.47;;;;;;;9.78;100.00;100033.69;5068696;28;20421;-78
2023/02/23 09:58:25;;;;;;;68.18;39.60;;;;;;;9.94;100.00;100034.66;5073543;28;20530;-80
2023/02/23 10:01:20;;;;;;;69.07;40.97;;;;;;;10.73;100.00;100148.88;5065634;28;20084;-80
2023/02/23 10:03:54;;;;;;;66.78;38.95;;;;;;;10.74;100.00;100137.34;5070868;28;20052;-80
2023/02/23 10:06:22;;;;;;;64.75;38.17;;;;;;;10.49;100.00;100112.16;5074096;28;20139;-79
2023/02/23 10:08:59;;;;;;;67.57;40.30;;;;;;;10.47;100.00;100086.69;5069515;28;20076;-79
2023/02/23 10:11:32;;;;;;;69.68;39.60;;;;;;;10.99;100.00;100155.50;5048675;28;20086;-78
2023/02/23 10:14:02;;;;;;;62.60;38.67;;;;;;;11.11;100.00;100142.44;5073643;28;20052;-78
2023/02/23 10:17:06;;;;;;;63.97;37.63;;;;;;;11.25;100.00;100149.66;5072467;28;20143;-79
2023/02/23 10:20:03;;;;;;;59.10;36.40;;;;;;;11.21;100.00;100122.47;5053894;28;20059;-78
2023/02/23 10:22:33;;;;;;;57.47;37.42;;;;;;;11.04;100.00;100087.19;5061266;28;20057;-79
2023/02/23 10:25:29;;;;;;;57.40;37.25;;;;;;;11.21;100.00;100138.38;5070648;28;20087;-79
2023/02/23 10:27:57;;;;;;;66.30;38.63;;;;;;;10.98;100.00;100144.03;5070867;28;20152;-79
2023/02/23 10:30:29;;;;;;;66.35;37.42;;;;;;;10.58;100.00;100123.19;5065592;28;20584;-81
2023/02/23 10:33:02;;;;;;;62.03;37.65;;;;;;;10.89;100.00;100161.25;5074362;28;20060;-79
2023/02/23 10:35:29;;;;;;;59.15;35.55;;;;;;;9.58;100.00;99938.69;5066903;28;20048;-82
2023/02/23 10:37:58;;;;;;;51.65;31.83;;;;;;;10.43;100.00;100050.72;5067768;28;20137;-80
2023/02/23 10:40:27;;;;;;;56.10;33.72;;;;;;;10.17;100.00;100002.59;5073080;28;20139;-79
2023/02/23 10:42:57;;;;;;;53.08;34.30;;;;;;;9.90;100.00;99911.44;5073614;28;20055;-79
2023/02/23 10:45:25;;;;;;;63.37;32.33;;;;;;;11.33;100.00;100166.03;5068451;28;20040;-79
2023/02/23 10:48:07;;;;;;;55.28;33.88;;;;;;;11.25;100.00;100173.50;5073133;28;20060;-79
2023/02/23 10:50:38;;;;;;;59.05;34.45;;;;;;;10.79;100.00;100119.44;5067577;28;20145;-79
2023/02/23 10:53:19;;;;;;;56.95;35.45;;;;;;;11.10;100.00;100163.72;5073701;28;20135;-78
2023/02/23 10:55:58;;;;;;;51.67;33.33;;;;;;;11.20;100.00;100170.25;5056375;28;20079;-81
2023/02/23 10:58:25;;;;;;;52.03;33.20;;;;;;;10.98;100.00;100132.59;5068636;28;20090;-80
2023/02/23 11:00:58;;;;;;;48.95;31.90;;;;;;;11.10;100.00;100135.44;5066396;28;20229;-79
2023/02/23 11:03:37;;;;;;;48.08;30.02;;;;;;;10.60;100.00;100090.41;5079449;28;20278;-81
2023/02/23 11:06:05;;;;;;;49.65;30.65;;;;;;;11.16;100.00;100155.47;5080805;28;20053;-80
2023/02/23 11:08:33;;;;;;;53.35;32.72;;;;;;;11.38;100.00;100157.81;5072584;28;20120;-79
2023/02/23 11:11:24;;;;;;;50.05;32.20;;;;;;;11.54;100.00;100162.19;5071456;28;20053;-78
2023/02/23 11:13:51;;;;;;;42.42;28.00;;;;;;;11.58;100.00;100134.56;5075251;28;20075;-79
2023/02/23 11:16:21;;;;;;;43.88;28.13;;;;;;;11.50;100.00;100134.13;5074489;28;20115;-80
2023/02/23 11:18:56;;;;;;;41.00;26.25;;;;;;;11.50;100.00;100152.69;5075107;28;20132;-78
2023/02/23 11:21:28;;;;;;;42.90;28.25;;;;;;;11.10;100.00;100089.53;5073044;28;20135;-79
2023/02/23 11:23:58;;;;;;;41.53;26.33;;;;;;;11.09;100.00;100075.44;5073871;28;20497;-81
2023/02/23 11:26:34;;;;;;;44.70;28.00;;;;;;;10.99;100.00;100028.31;5072206;28;20064;-80
2023/02/23 11:29:15;;;;;;;42.55;27.58;;;;;;;11.01;100.00;100013.19;5079742;28;20505;-80
2023/02/23 11:31:48;;;;;;;43.30;28.70;;;;;;;11.46;100.00;100066.31;5078710;28;20131;-80
2023/02/23 11:34:39;;;;;;;43.13;27.83;;;;;;;11.52;100.00;100067.75;5075754;28;20060;-82
2023/02/23 11:37:29;;;;;;;38.03;26.92;;;;;;;11.98;100.00;100137.66;5063438;28;20052;-81
2023/02/23 11:40:02;;;;;;;39.58;26.13;;;;;;;11.79;100.00;100063.59;5084203;28;20076;-81
2023/02/23 11:42:34;;;;;;;38.15;25.25;;;;;;;11.37;100.00;99981.97;5075645;28;20098;-80
2023/02/23 11:45:08;;;;;;;36.47;24.60;;;;;;;12.44;100.00;100145.63;5088183;28;20048;-80
2023/02/23 11:47:39;;;;;;;34.63;23.30;;;;;;;11.95;100.00;100039.69;5078676;28;20135;-81
2023/02/23 11:50:09;;;;;;;34.85;23.80;;;;;;;11.71;100.00;100027.78;5073907;28;20080;-82
2023/02/23 11:52:36;;;;;;;36.70;24.80;;;;;;;12.34;100.00;100141.81;5076708;28;20135;-80
2023/02/23 11:55:06;;;;;;;36.33;23.45;;;;;;;12.32;100.00;100131.28;5078829;28;20139;-80
2023/02/23 11:57:35;;;;;;;33.75;21.88;;;;;;;12.33;100.00;100145.41;5078520;28;20091;-80
2023/02/23 12:00:20;;;;;;;35.03;22.10;;;;;;;11.06;100.00;99976.69;5074938;28;20053;-81
2023/02/23 12:02:57;;;;;;;32.75;21.58;;;;;;;11.33;100.00;100043.22;5080305;28;20076;-82
2023/02/23 12:05:30;;;;;;;30.63;19.27;;;;;;;11.59;100.00;100100.97;5080240;28;20048;-80
2023/02/23 12:08:05;;;;;;;27.73;18.10;;;;;;;10.20;100.00;99874.63;5080657;28;20598;-80
2023/02/23 12:10:52;;;;;;;27.38;19.20;;;;;;;11.86;100.00;100117.16;5077456;28;20059;-78
2023/02/23 12:13:29;;;;;;;27.58;19.00;;;;;;;11.66;100.00;100035.16;5070351;28;20065;-80
2023/02/23 12:16:02;;;;;;;28.98;20.50;;;;;;;11.42;100.00;100005.59;5068443;28;20048;-81
2023/02/23 12:19:23;;;;;;;32.13;20.10;;;;;;;12.15;100.00;100111.03;5069881;28;20520;-80
2023/02/23 12:22:08;;;;;;;;;;;;;;;12.12;100.00;100113.03;4956907;28;20145;-80
2023/02/23 12:24:46;;;;;;;27.90;17.58;;;;;;;12.04;100.00;100109.94;5065701;28;19988;-79
2023/02/23 12:27:18;;;;;;;27.63;17.15;;;;;;;11.39;100.00;100021.66;5071917;28;20130;-80
2023/02/23 12:30:14;;;;;;;24.73;16.88;;;;;;;11.82;100.00;100111.16;5072248;28;20078;-80
2023/02/23 12:32:48;;;;;;;21.38;14.30;;;;;;;11.69;100.00;100112.75;5067873;28;20072;-80
2023/02/23 12:35:18;;;;;;;23.48;14.85;;;;;;;11.66;100.00;100109.41;5072560;28;20127;-79
2023/02/23 12:38:01;;;;;;;27.38;15.73;;;;;;;11.25;100.00;100055.09;5072646;28;20059;-80
2023/02/23 12:40:34;;;;;;;23.40;16.95;;;;;;;11.30;100.00;100085.81;5072940;28;20480;-82
2023/02/23 12:43:10;;;;;;;25.23;17.38;;;;;;;10.90;100.00;100008.47;5072724;28;20460;-79
2023/02/23 12:45:44;;;;;;;26.10;17.05;;;;;;;11.29;100.00;100073.50;5065186;28;20051;-79